sensor_id;sensor_type;location;lat;lon;timestamp;pressure;altitude;pressure_sealevel;temperature;humidity
13767;BME280;47980;48.794;9.176;2022-08-19T00:00:38;97788.63;;;22.35;70.48
13767;BME280;47980;48.794;9.176;2022-08-19T00:03:10;97788.16;;;22.17;71.04
13767;BME280;47980;48.794;9.176;2022-08-19T00:05:41;97783.94;;;22.13;71.47
13767;BME280;47980;48.794;9.176;2022-08-19T00:08:13;97783.94;;;22.13;71.95
13767;BME280;47980;48.794;9.176;2022-08-19T00:10:45;97784.69;;;22.17;71.35
13767;BME280;47980;48.794;9.176;2022-08-19T00:13:18;97779.28;;;22.17;71.71
13767;BME280;47980;48.794;9.176;2022-08-19T00:15:51;97791.69;;;22.10;71.87
13767;BME280;47980;48.794;9.176;2022-08-19T00:18:22;97789.13;;;22.00;72.72
13767;BME280;47980;48.794;9.176;2022-08-19T00:20:54;97792.50;;;22.07;72.20
13767;BME280;47980;48.794;9.176;2022-08-19T00:23:26;97790.16;;;22.09;71.77
13767;BME280;47980;48.794;9.176;2022-08-19T00:25:58;97788.16;;;22.14;71.70
13767;BME280;47980;48.794;9.176;2022-08-19T00:28:30;97798.50;;;22.22;71.38
13767;BME280;47980;48.794;9.176;2022-08-19T00:31:05;97789.75;;;22.11;71.63
13767;BME280;47980;48.794;9.176;2022-08-19T00:33:37;97787.41;;;22.13;71.96
13767;BME280;47980;48.794;9.176;2022-08-19T00:36:09;97780.47;;;22.12;72.33
13767;BME280;47980;48.794;9.176;2022-08-19T00:38:41;97766.22;;;22.11;72.02
13767;BME280;47980;48.794;9.176;2022-08-19T00:41:15;97760.91;;;22.04;72.16
13767;BME280;47980;48.794;9.176;2022-08-19T00:43:57;97757.44;;;22.04;72.50
13767;BME280;47980;48.794;9.176;2022-08-19T00:46:31;97754.53;;;22.18;71.47
13767;BME280;47980;48.794;9.176;2022-08-19T00:49:08;97756.47;;;22.18;71.87
13767;BME280;47980;48.794;9.176;2022-08-19T00:51:47;97771.63;;;22.11;72.15
13767;BME280;47980;48.794;9.176;2022-08-19T00:54:20;97765.03;;;22.13;71.90
13767;BME280;47980;48.794;9.176;2022-08-19T00:56:52;97772.16;;;21.99;72.64
13767;BME280;47980;48.794;9.176;2022-08-19T00:59:24;97773.75;;;21.97;73.01
13767;BME280;47980;48.794;9.176;2022-08-19T01:01:58;97782.53;;;22.04;72.62
13767;BME280;47980;48.794;9.176;2022-08-19T01:04:29;97784.69;;;22.17;71.65
13767;BME280;47980;48.794;9.176;2022-08-19T01:07:01;97780.84;;;22.14;71.87
13767;BME280;47980;48.794;9.176;2022-08-19T01:09:33;97784.75;;;22.09;72.19
13767;BME280;47980;48.794;9.176;2022-08-19T01:12:05;97781.28;;;22.09;72.22
13767;BME280;47980;48.794;9.176;2022-08-19T01:14:38;97775.53;;;22.07;72.18
13767;BME280;47980;48.794;9.176;2022-08-19T01:17:12;97770.94;;;22.04;72.71
13767;BME280;47980;48.794;9.176;2022-08-19T01:19:45;97766.97;;;22.12;72.43
13767;BME280;47980;48.794;9.176;2022-08-19T01:22:27;97769.03;;;22.04;72.56
13767;BME280;47980;48.794;9.176;2022-08-19T01:24:59;97770.28;;;21.96;72.29
13767;BME280;47980;48.794;9.176;2022-08-19T01:27:37;97774.31;;;22.11;72.46
13767;BME280;47980;48.794;9.176;2022-08-19T01:30:11;97771.63;;;22.11;72.43
13767;BME280;47980;48.794;9.176;2022-08-19T01:32:43;97770.81;;;22.15;72.15
13767;BME280;47980;48.794;9.176;2022-08-19T01:35:17;97765.84;;;22.09;72.34
13767;BME280;47980;48.794;9.176;2022-08-19T01:37:52;97761.25;;;22.06;72.29
13767;BME280;47980;48.794;9.176;2022-08-19T01:40:27;97762.16;;;21.96;72.93
13767;BME280;47980;48.794;9.176;2022-08-19T01:42:59;97761.94;;;21.87;73.13
13767;BME280;47980;48.794;9.176;2022-08-19T01:45:33;97770.81;;;21.87;73.21
13767;BME280;47980;48.794;9.176;2022-08-19T01:48:05;97767.69;;;21.89;73.05
13767;BME280;47980;48.794;9.176;2022-08-19T01:50:37;97763.47;;;21.88;73.57
13767;BME280;47980;48.794;9.176;2022-08-19T01:53:11;97766.97;;;21.85;73.92
13767;BME280;47980;48.794;9.176;2022-08-19T01:55:43;97752.66;;;21.88;73.90
13767;BME280;47980;48.794;9.176;2022-08-19T01:58:19;97756.44;;;21.94;73.14
13767;BME280;47980;48.794;9.176;2022-08-19T02:00:52;97766.91;;;21.88;73.31
13767;BME280;47980;48.794;9.176;2022-08-19T02:03:23;97768.47;;;21.90;73.51
13767;BME280;47980;48.794;9.176;2022-08-19T02:05:56;97770.75;;;21.91;73.48
13767;BME280;47980;48.794;9.176;2022-08-19T02:08:33;97768.34;;;21.97;73.48
13767;BME280;47980;48.794;9.176;2022-08-19T02:11:06;97775.38;;;21.91;73.62
13767;BME280;47980;48.794;9.176;2022-08-19T02:13:37;97767.81;;;21.78;74.46
13767;BME280;47980;48.794;9.176;2022-08-19T02:16:09;97765.44;;;21.84;73.95
13767;BME280;47980;48.794;9.176;2022-08-19T02:18:41;97758.16;;;21.81;74.68
13767;BME280;47980;48.794;9.176;2022-08-19T02:21:12;97758.22;;;21.77;75.07
13767;BME280;47980;48.794;9.176;2022-08-19T02:23:46;97762.31;;;21.85;74.01
13767;BME280;47980;48.794;9.176;2022-08-19T02:26:18;97765.97;;;21.75;74.80
13767;BME280;47980;48.794;9.176;2022-08-19T02:28:50;97766.34;;;21.74;74.90
13767;BME280;47980;48.794;9.176;2022-08-19T02:31:25;97777.25;;;21.67;75.79
13767;BME280;47980;48.794;9.176;2022-08-19T02:33:58;97770.94;;;21.77;75.27
13767;BME280;47980;48.794;9.176;2022-08-19T02:36:30;97769.09;;;21.70;75.54
13767;BME280;47980;48.794;9.176;2022-08-19T02:39:04;97769.66;;;21.58;76.36
13767;BME280;47980;48.794;9.176;2022-08-19T02:41:35;97768.16;;;21.57;76.17
13767;BME280;47980;48.794;9.176;2022-08-19T02:44:06;97769.72;;;21.54;76.81
13767;BME280;47980;48.794;9.176;2022-08-19T02:46:39;97769.56;;;21.65;76.21
13767;BME280;47980;48.794;9.176;2022-08-19T02:49:10;97765.38;;;21.60;76.33
13767;BME280;47980;48.794;9.176;2022-08-19T02:51:44;97763.53;;;21.54;77.25
13767;BME280;47980;48.794;9.176;2022-08-19T02:54:18;97762.56;;;21.68;75.96
13767;BME280;47980;48.794;9.176;2022-08-19T02:56:50;97764.25;;;21.58;76.22
13767;BME280;47980;48.794;9.176;2022-08-19T02:59:21;97762.78;;;21.53;76.79
13767;BME280;47980;48.794;9.176;2022-08-19T03:01:53;97755.94;;;21.45;76.71
13767;BME280;47980;48.794;9.176;2022-08-19T03:04:25;97749.72;;;21.48;76.64
13767;BME280;47980;48.794;9.176;2022-08-19T03:06:56;97744.41;;;21.41;77.84
13767;BME280;47980;48.794;9.176;2022-08-19T03:09:29;97745.59;;;21.40;77.98
13767;BME280;47980;48.794;9.176;2022-08-19T03:12:02;97756.69;;;21.46;77.94
13767;BME280;47980;48.794;9.176;2022-08-19T03:14:34;97755.06;;;21.52;78.21
13767;BME280;47980;48.794;9.176;2022-08-19T03:17:06;97774.94;;;21.34;79.57
13767;BME280;47980;48.794;9.176;2022-08-19T03:19:38;97784.25;;;21.30;79.90
13767;BME280;47980;48.794;9.176;2022-08-19T03:22:10;97780.72;;;21.36;80.26
13767;BME280;47980;48.794;9.176;2022-08-19T03:24:43;97790.44;;;21.27;81.93
13767;BME280;47980;48.794;9.176;2022-08-19T03:27:14;97776.66;;;21.21;80.89
13767;BME280;47980;48.794;9.176;2022-08-19T03:29:47;97777.88;;;21.13;82.00
13767;BME280;47980;48.794;9.176;2022-08-19T03:32:19;97775.06;;;21.24;83.19
13767;BME280;47980;48.794;9.176;2022-08-19T03:34:52;97778.56;;;21.21;83.20
13767;BME280;47980;48.794;9.176;2022-08-19T03:37:23;97776.31;;;21.15;82.11
13767;BME280;47980;48.794;9.176;2022-08-19T03:39:57;97781.44;;;21.06;81.85
13767;BME280;47980;48.794;9.176;2022-08-19T03:42:29;97788.78;;;21.02;81.82
13767;BME280;47980;48.794;9.176;2022-08-19T03:45:00;97779.84;;;21.09;82.17
13767;BME280;47980;48.794;9.176;2022-08-19T03:47:32;97778.28;;;21.11;82.31
13767;BME280;47980;48.794;9.176;2022-08-19T03:50:04;97769.44;;;21.11;81.09
13767;BME280;47980;48.794;9.176;2022-08-19T03:52:36;97771.78;;;21.05;81.52
13767;BME280;47980;48.794;9.176;2022-08-19T03:55:09;97775.31;;;20.99;82.96
13767;BME280;47980;48.794;9.176;2022-08-19T03:57:41;97776.53;;;20.94;82.50
13767;BME280;47980;48.794;9.176;2022-08-19T04:00:13;97782.63;;;21.02;81.29
13767;BME280;47980;48.794;9.176;2022-08-19T04:02:45;97775.63;;;21.08;79.99
13767;BME280;47980;48.794;9.176;2022-08-19T04:05:17;97784.88;;;21.07;81.06
13767;BME280;47980;48.794;9.176;2022-08-19T04:07:48;97788.00;;;21.02;81.18
13767;BME280;47980;48.794;9.176;2022-08-19T04:10:21;97787.59;;;21.07;81.41
13767;BME280;47980;48.794;9.176;2022-08-19T04:12:54;97786.81;;;21.06;80.67
13767;BME280;47980;48.794;9.176;2022-08-19T04:15:26;97786.53;;;20.97;81.07
13767;BME280;47980;48.794;9.176;2022-08-19T04:18:01;97791.09;;;21.04;80.69
13767;BME280;47980;48.794;9.176;2022-08-19T04:20:39;97786.91;;;20.99;80.29
13767;BME280;47980;48.794;9.176;2022-08-19T04:23:11;97782.53;;;21.09;80.33
13767;BME280;47980;48.794;9.176;2022-08-19T04:25:44;97786.81;;;21.06;80.81
13767;BME280;47980;48.794;9.176;2022-08-19T04:28:16;97778.81;;;20.99;80.52
13767;BME280;47980;48.794;9.176;2022-08-19T04:30:49;97774.66;;;20.87;80.53
13767;BME280;47980;48.794;9.176;2022-08-19T04:33:24;97780.00;;;20.95;80.13
13767;BME280;47980;48.794;9.176;2022-08-19T04:35:56;97781.16;;;20.94;80.92
13767;BME280;47980;48.794;9.176;2022-08-19T04:38:28;97776.06;;;21.03;79.54
13767;BME280;47980;48.794;9.176;2022-08-19T04:41:03;97772.13;;;21.11;79.58
13767;BME280;47980;48.794;9.176;2022-08-19T04:43:52;97777.19;;;21.05;80.38
13767;BME280;47980;48.794;9.176;2022-08-19T04:46:24;97785.19;;;21.12;79.38
13767;BME280;47980;48.794;9.176;2022-08-19T04:48:56;97786.78;;;21.10;79.68
13767;BME280;47980;48.794;9.176;2022-08-19T04:51:28;97786.81;;;21.06;79.47
13767;BME280;47980;48.794;9.176;2022-08-19T04:54:02;97794.47;;;21.11;79.45
13767;BME280;47980;48.794;9.176;2022-08-19T04:56:35;97791.78;;;21.11;79.00
13767;BME280;47980;48.794;9.176;2022-08-19T04:59:07;97792.66;;;21.01;80.06
13767;BME280;47980;48.794;9.176;2022-08-19T05:01:43;97787.22;;;21.05;79.74
13767;BME280;47980;48.794;9.176;2022-08-19T05:04:20;97788.09;;;20.95;80.57
13767;BME280;47980;48.794;9.176;2022-08-19T05:06:51;97790.72;;;21.02;79.51
13767;BME280;47980;48.794;9.176;2022-08-19T05:09:24;97793.25;;;21.16;78.91
13767;BME280;47980;48.794;9.176;2022-08-19T05:11:57;97797.94;;;21.12;79.32
13767;BME280;47980;48.794;9.176;2022-08-19T05:14:29;97803.34;;;21.08;79.93
13767;BME280;47980;48.794;9.176;2022-08-19T05:17:01;97814.94;;;21.05;80.47
13767;BME280;47980;48.794;9.176;2022-08-19T05:19:32;97814.41;;;21.21;78.60
13767;BME280;47980;48.794;9.176;2022-08-19T05:22:21;97819.50;;;21.12;79.57
13767;BME280;47980;48.794;9.176;2022-08-19T05:25:08;97830.22;;;21.19;78.79
13767;BME280;47980;48.794;9.176;2022-08-19T05:27:41;97853.19;;;21.38;78.63
13767;BME280;47980;48.794;9.176;2022-08-19T05:30:14;97859.28;;;21.04;79.73
13767;BME280;47980;48.794;9.176;2022-08-19T05:32:46;97870.38;;;21.13;80.04
13767;BME280;47980;48.794;9.176;2022-08-19T05:35:17;97881.00;;;21.28;79.00
13767;BME280;47980;48.794;9.176;2022-08-19T05:37:49;97886.56;;;21.13;80.06
13767;BME280;47980;48.794;9.176;2022-08-19T05:40:21;97888.88;;;21.11;79.70
13767;BME280;47980;48.794;9.176;2022-08-19T05:42:54;97891.25;;;21.06;80.98
13767;BME280;47980;48.794;9.176;2022-08-19T05:45:26;97890.44;;;21.09;80.51
13767;BME280;47980;48.794;9.176;2022-08-19T05:47:58;97885.34;;;21.22;79.18
13767;BME280;47980;48.794;9.176;2022-08-19T05:50:29;97880.28;;;21.24;79.34
13767;BME280;47980;48.794;9.176;2022-08-19T05:53:01;97882.16;;;21.34;78.39
13767;BME280;47980;48.794;9.176;2022-08-19T05:55:32;97878.31;;;21.28;79.37
13767;BME280;47980;48.794;9.176;2022-08-19T05:58:05;97886.38;;;21.31;79.09
13767;BME280;47980;48.794;9.176;2022-08-19T06:00:38;97877.28;;;21.18;79.02
13767;BME280;47980;48.794;9.176;2022-08-19T06:03:10;97880.28;;;21.24;79.51
13767;BME280;47980;48.794;9.176;2022-08-19T06:05:41;97885.34;;;21.59;78.31
13767;BME280;47980;48.794;9.176;2022-08-19T06:08:13;97870.09;;;21.42;78.01
13767;BME280;47980;48.794;9.176;2022-08-19T06:10:45;97880.41;;;21.54;77.59
13767;BME280;47980;48.794;9.176;2022-08-19T06:13:17;97889.47;;;21.30;78.35
13767;BME280;47980;48.794;9.176;2022-08-19T06:15:49;97884.84;;;21.34;79.13
13767;BME280;47980;48.794;9.176;2022-08-19T06:18:21;97878.28;;;21.35;79.26
13767;BME280;47980;48.794;9.176;2022-08-19T06:20:53;97881.72;;;21.39;79.31
13767;BME280;47980;48.794;9.176;2022-08-19T06:23:25;97879.44;;;21.34;78.99
13767;BME280;47980;48.794;9.176;2022-08-19T06:25:56;97879.81;;;21.36;79.25
13767;BME280;47980;48.794;9.176;2022-08-19T06:28:29;97880.84;;;21.46;79.08
13767;BME280;47980;48.794;9.176;2022-08-19T06:31:06;97877.69;;;21.54;78.11
13767;BME280;47980;48.794;9.176;2022-08-19T06:33:38;97873.66;;;21.35;78.28
13767;BME280;47980;48.794;9.176;2022-08-19T06:36:17;97882.88;;;21.38;78.83
13767;BME280;47980;48.794;9.176;2022-08-19T06:38:48;97877.63;;;21.20;80.28
13767;BME280;47980;48.794;9.176;2022-08-19T06:41:20;97887.16;;;21.35;81.87
13767;BME280;47980;48.794;9.176;2022-08-19T06:43:55;97880.69;;;21.22;84.17
13767;BME280;47980;48.794;9.176;2022-08-19T06:46:27;97891.22;;;21.09;82.77
13767;BME280;47980;48.794;9.176;2022-08-19T06:48:59;97884.69;;;21.07;84.46
13767;BME280;47980;48.794;9.176;2022-08-19T06:51:31;97890.75;;;21.18;85.51
13767;BME280;47980;48.794;9.176;2022-08-19T06:54:04;97885.41;;;21.14;84.57
13767;BME280;47980;48.794;9.176;2022-08-19T06:56:37;97882.75;;;21.07;86.93
13767;BME280;47980;48.794;9.176;2022-08-19T06:59:12;97885.19;;;21.39;83.38
13767;BME280;47980;48.794;9.176;2022-08-19T07:01:45;97891.00;;;21.31;86.19
13767;BME280;47980;48.794;9.176;2022-08-19T07:04:19;97894.16;;;21.26;86.83
13767;BME280;47980;48.794;9.176;2022-08-19T07:06:57;97894.66;;;21.13;85.79
13767;BME280;47980;48.794;9.176;2022-08-19T07:09:30;97898.88;;;21.14;85.93
13767;BME280;47980;48.794;9.176;2022-08-19T07:12:02;97897.75;;;21.12;85.40
13767;BME280;47980;48.794;9.176;2022-08-19T07:14:36;97897.44;;;21.48;84.57
13767;BME280;47980;48.794;9.176;2022-08-19T07:17:10;97898.72;;;21.32;85.86
13767;BME280;47980;48.794;9.176;2022-08-19T07:19:42;97907.22;;;21.27;84.40
13767;BME280;47980;48.794;9.176;2022-08-19T07:22:13;97912.19;;;21.39;83.06
13767;BME280;47980;48.794;9.176;2022-08-19T07:24:45;97909.56;;;21.29;84.51
13767;BME280;47980;48.794;9.176;2022-08-19T07:27:18;97909.16;;;21.27;83.61
13767;BME280;47980;48.794;9.176;2022-08-19T07:29:52;97905.63;;;21.37;81.42
13767;BME280;47980;48.794;9.176;2022-08-19T07:32:24;97907.19;;;21.34;82.95
13767;BME280;47980;48.794;9.176;2022-08-19T07:34:57;97905.53;;;21.06;83.99
13767;BME280;47980;48.794;9.176;2022-08-19T07:37:30;97906.97;;;21.14;84.58
13767;BME280;47980;48.794;9.176;2022-08-19T07:40:03;97919.94;;;21.34;82.07
13767;BME280;47980;48.794;9.176;2022-08-19T07:42:35;97910.50;;;21.08;81.92
13767;BME280;47980;48.794;9.176;2022-08-19T07:45:08;97911.09;;;20.85;84.04
13767;BME280;47980;48.794;9.176;2022-08-19T07:47:40;97907.50;;;20.99;84.06
13767;BME280;47980;48.794;9.176;2022-08-19T07:50:13;97910.19;;;20.99;83.54
13767;BME280;47980;48.794;9.176;2022-08-19T07:52:45;97916.63;;;21.12;81.81
13767;BME280;47980;48.794;9.176;2022-08-19T07:55:20;97912.00;;;21.12;82.45
13767;BME280;47980;48.794;9.176;2022-08-19T07:57:52;97920.50;;;21.11;83.01
13767;BME280;47980;48.794;9.176;2022-08-19T08:00:26;97913.56;;;21.13;80.77
13767;BME280;47980;48.794;9.176;2022-08-19T08:02:57;97919.63;;;21.25;81.05
13767;BME280;47980;48.794;9.176;2022-08-19T08:05:29;97918.50;;;21.19;81.47
13767;BME280;47980;48.794;9.176;2022-08-19T08:08:18;97917.31;;;21.23;82.40
13767;BME280;47980;48.794;9.176;2022-08-19T08:11:07;97916.88;;;21.28;82.42
13767;BME280;47980;48.794;9.176;2022-08-19T08:13:38;97917.44;;;21.09;81.68
13767;BME280;47980;48.794;9.176;2022-08-19T08:16:12;97925.53;;;21.09;82.54
13767;BME280;47980;48.794;9.176;2022-08-19T08:18:44;97930.09;;;21.15;80.93
13767;BME280;47980;48.794;9.176;2022-08-19T08:21:16;97922.41;;;21.14;82.13
13767;BME280;47980;48.794;9.176;2022-08-19T08:23:48;97925.03;;;21.21;81.85
13767;BME280;47980;48.794;9.176;2022-08-19T08:26:19;97934.34;;;21.13;81.48
13767;BME280;47980;48.794;9.176;2022-08-19T08:28:51;97928.84;;;21.24;81.85
13767;BME280;47980;48.794;9.176;2022-08-19T08:31:24;97926.22;;;21.16;82.23
13767;BME280;47980;48.794;9.176;2022-08-19T08:33:56;97934.53;;;21.40;81.17
13767;BME280;47980;48.794;9.176;2022-08-19T08:36:27;97929.94;;;21.37;81.47
13767;BME280;47980;48.794;9.176;2022-08-19T08:38:59;97927.56;;;21.43;82.80
13767;BME280;47980;48.794;9.176;2022-08-19T08:41:36;97937.22;;;21.40;82.13
13767;BME280;47980;48.794;9.176;2022-08-19T08:44:14;97937.31;;;21.29;83.44
13767;BME280;47980;48.794;9.176;2022-08-19T08:46:54;97934.88;;;21.42;83.15
13767;BME280;47980;48.794;9.176;2022-08-19T08:49:32;97932.25;;;21.31;87.78
13767;BME280;47980;48.794;9.176;2022-08-19T08:52:08;97930.63;;;21.45;88.72
13767;BME280;47980;48.794;9.176;2022-08-19T08:54:43;97924.81;;;21.50;86.18
13767;BME280;47980;48.794;9.176;2022-08-19T08:57:20;97920.09;;;21.57;86.09
13767;BME280;47980;48.794;9.176;2022-08-19T08:59:54;97921.94;;;21.64;84.94
13767;BME280;47980;48.794;9.176;2022-08-19T09:02:29;97929.78;;;21.51;85.67
13767;BME280;47980;48.794;9.176;2022-08-19T09:05:01;97935.19;;;21.51;85.50
13767;BME280;47980;48.794;9.176;2022-08-19T09:07:41;97935.47;;;21.60;85.40
13767;BME280;47980;48.794;9.176;2022-08-19T09:10:22;97933.78;;;21.74;85.68
13767;BME280;47980;48.794;9.176;2022-08-19T09:13:04;97931.09;;;21.74;84.91
13767;BME280;47980;48.794;9.176;2022-08-19T09:15:42;97934.81;;;21.87;83.14
13767;BME280;47980;48.794;9.176;2022-08-19T09:18:17;97937.94;;;21.82;85.38
13767;BME280;47980;48.794;9.176;2022-08-19T09:20:48;97938.53;;;21.97;84.77
13767;BME280;47980;48.794;9.176;2022-08-19T09:23:20;97945.88;;;21.96;85.53
13767;BME280;47980;48.794;9.176;2022-08-19T09:25:54;97942.06;;;21.94;85.33
13767;BME280;47980;48.794;9.176;2022-08-19T09:28:26;97939.28;;;22.01;83.96
13767;BME280;47980;48.794;9.176;2022-08-19T09:30:57;97931.94;;;22.01;81.72
13767;BME280;47980;48.794;9.176;2022-08-19T09:33:33;97939.19;;;22.08;80.94
13767;BME280;47980;48.794;9.176;2022-08-19T09:36:07;97937.69;;;22.03;80.88
13767;BME280;47980;48.794;9.176;2022-08-19T09:38:39;97935.66;;;22.11;82.14
13767;BME280;47980;48.794;9.176;2022-08-19T09:41:13;97938.16;;;22.29;83.06
13767;BME280;47980;48.794;9.176;2022-08-19T09:43:47;97928.66;;;22.48;79.96
13767;BME280;47980;48.794;9.176;2022-08-19T09:46:23;97936.44;;;22.42;80.89
13767;BME280;47980;48.794;9.176;2022-08-19T09:48:59;97941.38;;;22.47;82.82
13767;BME280;47980;48.794;9.176;2022-08-19T09:51:31;97945.31;;;22.43;79.36
13767;BME280;47980;48.794;9.176;2022-08-19T09:54:04;97942.47;;;22.53;80.19
13767;BME280;47980;48.794;9.176;2022-08-19T09:56:36;97944.69;;;22.58;80.58
13767;BME280;47980;48.794;9.176;2022-08-19T09:59:07;97951.06;;;22.48;80.52
13767;BME280;47980;48.794;9.176;2022-08-19T10:01:39;97954.03;;;22.54;79.13
13767;BME280;47980;48.794;9.176;2022-08-19T10:04:12;97950.72;;;22.43;80.26
13767;BME280;47980;48.794;9.176;2022-08-19T10:06:44;97946.88;;;22.40;80.54
13767;BME280;47980;48.794;9.176;2022-08-19T10:09:17;97938.59;;;22.54;79.65
13767;BME280;47980;48.794;9.176;2022-08-19T10:11:49;97945.66;;;22.48;79.14
13767;BME280;47980;48.794;9.176;2022-08-19T10:14:20;97945.66;;;22.48;79.25
13767;BME280;47980;48.794;9.176;2022-08-19T10:16:53;97944.66;;;22.62;77.52
13767;BME280;47980;48.794;9.176;2022-08-19T10:19:28;97941.44;;;22.71;77.82
13767;BME280;47980;48.794;9.176;2022-08-19T10:22:06;97941.16;;;22.92;77.45
13767;BME280;47980;48.794;9.176;2022-08-19T10:24:38;97938.97;;;23.07;75.82
13767;BME280;47980;48.794;9.176;2022-08-19T10:27:09;97934.97;;;22.92;76.68
13767;BME280;47980;48.794;9.176;2022-08-19T10:29:43;97940.63;;;23.01;76.60
13767;BME280;47980;48.794;9.176;2022-08-19T10:32:14;97933.25;;;23.01;75.47
13767;BME280;47980;48.794;9.176;2022-08-19T10:34:47;97942.22;;;23.22;74.33
13767;BME280;47980;48.794;9.176;2022-08-19T10:37:19;97926.72;;;23.46;73.89
13767;BME280;47980;48.794;9.176;2022-08-19T10:39:51;97922.41;;;23.48;72.71
13767;BME280;47980;48.794;9.176;2022-08-19T10:42:22;97925.22;;;23.65;73.02
13767;BME280;47980;48.794;9.176;2022-08-19T10:44:55;97922.91;;;24.03;69.94
13767;BME280;47980;48.794;9.176;2022-08-19T10:47:27;97911.94;;;24.10;69.51
13767;BME280;47980;48.794;9.176;2022-08-19T10:50:00;97923.22;;;24.25;70.16
13767;BME280;47980;48.794;9.176;2022-08-19T10:52:49;97921.09;;;24.16;69.71
13767;BME280;47980;48.794;9.176;2022-08-19T10:55:23;97928.69;;;24.05;68.39
13767;BME280;47980;48.794;9.176;2022-08-19T10:58:15;97921.50;;;23.78;69.61
13767;BME280;47980;48.794;9.176;2022-08-19T11:00:51;97919.78;;;23.65;69.74
13767;BME280;47980;48.794;9.176;2022-08-19T11:03:24;97921.69;;;23.44;72.04
13767;BME280;47980;48.794;9.176;2022-08-19T11:05:59;97917.19;;;23.38;71.09
13767;BME280;47980;48.794;9.176;2022-08-19T11:08:30;97919.75;;;23.25;72.93
13767;BME280;47980;48.794;9.176;2022-08-19T11:11:03;97924.78;;;23.46;72.61
13767;BME280;47980;48.794;9.176;2022-08-19T11:13:36;97916.38;;;23.61;71.21
13767;BME280;47980;48.794;9.176;2022-08-19T11:16:09;97923.25;;;23.65;70.09
13767;BME280;47980;48.794;9.176;2022-08-19T11:18:46;97921.97;;;23.93;68.64
13767;BME280;47980;48.794;9.176;2022-08-19T11:21:22;97921.41;;;24.38;67.44
13767;BME280;47980;48.794;9.176;2022-08-19T11:23:56;97921.28;;;24.45;66.30
13767;BME280;47980;48.794;9.176;2022-08-19T11:26:28;97913.84;;;24.30;66.84
13767;BME280;47980;48.794;9.176;2022-08-19T11:29:02;97913.50;;;24.27;67.17
13767;BME280;47980;48.794;9.176;2022-08-19T11:31:34;97915.28;;;24.34;66.29
13767;BME280;47980;48.794;9.176;2022-08-19T11:34:09;97914.09;;;24.55;66.15
13767;BME280;47980;48.794;9.176;2022-08-19T11:36:44;97919.75;;;24.44;65.55
13767;BME280;47980;48.794;9.176;2022-08-19T11:39:19;97916.13;;;24.15;65.23
13767;BME280;47980;48.794;9.176;2022-08-19T11:41:50;97921.28;;;24.25;64.94
13767;BME280;47980;48.794;9.176;2022-08-19T11:44:22;97913.78;;;24.33;64.52
13767;BME280;47980;48.794;9.176;2022-08-19T11:46:54;97909.88;;;24.34;64.49
13767;BME280;47980;48.794;9.176;2022-08-19T11:49:25;97915.16;;;24.21;64.21
13767;BME280;47980;48.794;9.176;2022-08-19T11:51:58;97920.66;;;24.18;64.68
13767;BME280;47980;48.794;9.176;2022-08-19T11:54:30;97920.88;;;24.27;63.85
13767;BME280;47980;48.794;9.176;2022-08-19T11:57:02;97916.66;;;24.26;64.66
13767;BME280;47980;48.794;9.176;2022-08-19T11:59:34;97919.44;;;24.22;64.76
13767;BME280;47980;48.794;9.176;2022-08-19T12:02:05;97913.16;;;24.25;64.21
13767;BME280;47980;48.794;9.176;2022-08-19T12:04:37;97906.19;;;24.08;64.67
13767;BME280;47980;48.794;9.176;2022-08-19T12:07:10;97905.09;;;24.22;64.84
13767;BME280;47980;48.794;9.176;2022-08-19T12:09:42;97913.31;;;24.18;64.40
13767;BME280;47980;48.794;9.176;2022-08-19T12:12:13;97909.22;;;24.10;65.59
13767;BME280;47980;48.794;9.176;2022-08-19T12:14:45;97904.31;;;24.41;63.77
13767;BME280;47980;48.794;9.176;2022-08-19T12:17:17;97910.63;;;24.18;64.57
13767;BME280;47980;48.794;9.176;2022-08-19T12:19:49;97908.44;;;24.30;64.49
13767;BME280;47980;48.794;9.176;2022-08-19T12:22:22;97902.22;;;24.29;64.28
13767;BME280;47980;48.794;9.176;2022-08-19T12:24:54;97907.19;;;24.14;65.09
13767;BME280;47980;48.794;9.176;2022-08-19T12:27:25;97907.56;;;24.33;63.47
13767;BME280;47980;48.794;9.176;2022-08-19T12:29:57;97908.16;;;24.24;64.51
13767;BME280;47980;48.794;9.176;2022-08-19T12:32:32;97907.66;;;23.73;71.53
13767;BME280;47980;48.794;9.176;2022-08-19T12:35:04;97906.38;;;23.58;72.66
13767;BME280;47980;48.794;9.176;2022-08-19T12:37:38;97915.44;;;23.71;71.78
13767;BME280;47980;48.794;9.176;2022-08-19T12:40:13;97907.50;;;23.80;73.08
13767;BME280;47980;48.794;9.176;2022-08-19T12:42:44;97915.63;;;24.00;71.76
13767;BME280;47980;48.794;9.176;2022-08-19T12:45:20;97908.97;;;23.85;72.58
13767;BME280;47980;48.794;9.176;2022-08-19T12:47:52;97907.25;;;24.11;71.40
13767;BME280;47980;48.794;9.176;2022-08-19T12:50:24;97908.38;;;24.13;72.13
13767;BME280;47980;48.794;9.176;2022-08-19T12:52:57;97909.53;;;24.32;70.00
13767;BME280;47980;48.794;9.176;2022-08-19T12:55:29;97904.69;;;24.23;70.06
13767;BME280;47980;48.794;9.176;2022-08-19T12:58:00;97908.81;;;24.64;68.32
13767;BME280;47980;48.794;9.176;2022-08-19T13:00:32;97912.72;;;24.47;68.96
13767;BME280;47980;48.794;9.176;2022-08-19T13:03:04;97913.13;;;24.45;68.55
13767;BME280;47980;48.794;9.176;2022-08-19T13:05:35;97908.47;;;24.10;70.84
13767;BME280;47980;48.794;9.176;2022-08-19T13:08:08;97911.31;;;24.22;69.66
13767;BME280;47980;48.794;9.176;2022-08-19T13:10:41;97920.59;;;24.21;70.76
13767;BME280;47980;48.794;9.176;2022-08-19T13:13:13;97920.94;;;23.87;72.35
13767;BME280;47980;48.794;9.176;2022-08-19T13:15:44;97938.00;;;23.84;73.55
13767;BME280;47980;48.794;9.176;2022-08-19T13:18:17;97935.09;;;23.75;76.24
13767;BME280;47980;48.794;9.176;2022-08-19T13:20:49;97929.56;;;23.59;78.21
13767;BME280;47980;48.794;9.176;2022-08-19T13:23:22;97926.94;;;23.55;79.64
13767;BME280;47980;48.794;9.176;2022-08-19T13:25:57;97929.69;;;23.51;80.66
13767;BME280;47980;48.794;9.176;2022-08-19T13:28:29;97926.28;;;23.47;81.71
13767;BME280;47980;48.794;9.176;2022-08-19T13:31:23;97935.03;;;23.35;82.57